aviador You're here:

KGKJ Decoded Metar

MEADVILLE in PA, USA
Report Time2017-11-25 04:53:00
UTC Time2017-11-25 05:38:13
Flight Rules vfr VFR
Wind200° at 11 Gusting to 21 kt
W.Decomp.*RWY 25: 8.2 kt HW 7.4 kt LCW
W.Rank200° ranks 3
Current wind is above 200° avg. (7.0)
Visibility9999 m
Phenomena:N/A
Clouds:N/A
Expected CloudBase > 5,600 ft AGL from Temp-Dew spread
CeilingNone
Temp08°C (ISA -4)
Dew Point-6°C (37% RH)
AAT1.3°C
QNH1005 hPa
Density Alt1,230 ft
Elevation1,404 ft
Report Wrong Elevation
Raw Report
KGKJ 250453Z AUTO 20011G21KT 10SM CLR 08/M06 A2969 RMK AO2 SLP057
T00831061 400941017=

Extra information for KGKJ:More info

Metar Taf Metar & Taf Last 4 Metars F.Rules Stats Wind Profile Meteogram Temp Stats Airport Information Weather charts Add Link Nearby VenuesMetar ALERT Operation Metar Decoded Social comments

AIRNAV info for KGKJ